Norwegian Breakaway — C6ZJ3 — position and weather

sailwx.info

Track history (hours):
 
Tides and Currents Weather Stations Pressure Air Temp Water Temp Dewpoint Dewpoint Depression Visibility Wind Speed Wind Dir Waves Ship Positions

Norwegian Breakaway

Last reported at 2019-Oct-17 08:09 UTC. Time now 2019-Oct-17 16:49 UTC.
Position N 17°34' W 087°20'.

Length 325 m; draft 8.6 m.

Type: Passenger vessel. MMSI: 311050800.

Date/timePositionNaut miles runAvg speedWind from/ knotsBaromVisibWave heightAir tempDewpointWater temp
2019-Oct-17 08:09N 17°34' W 087°20'518.4
2019-Oct-17 07:53N 17°30' W 087°20'717.8
2019-Oct-17 07:29N 17°23' W 087°21'817.7
2019-Oct-17 07:01N 17°15' W 087°23'917.4
2019-Oct-17 06:30N 17°06' W 087°26'917.4
2019-Oct-17 06:00N 16°58' W 087°30'917.3
2019-Oct-17 05:30N 16°51' W 087°34'816.9
2019-Oct-17 05:00N 16°43' W 087°39'1016.6
2019-Oct-17 04:25N 16°35' W 087°44'1116.6
2019-Oct-17 03:45N 16°26' W 087°51'416.7
2019-Oct-17 03:30N 16°23' W 087°54'816.2
2019-Oct-17 03:00N 16°17' W 087°59'916.3
2019-Oct-17 02:29N 16°10' W 088°05'816.1
2019-Oct-17 02:01N 16°04' W 088°09'815.3
2019-Oct-17 01:30N 16°01' W 088°17'815.1
2019-Oct-17 01:00N 16°02' W 088°25'713.8
2019-Oct-17 00:30N 16°09' W 088°27'714.2
2019-Oct-17 00:00N 16°16' W 088°26'813.9
2019-Oct-16 23:27N 16°24' W 088°24'4 9.9
2019-Oct-16 23:00N 16°28' W 088°24'0 0.1
2019-Oct-16 22:19N 16°28' W 088°24'0 0.0
2019-Oct-16 21:46N 16°28' W 088°24'0 0.0
2019-Oct-16 21:28N 16°28' W 088°24'0 0.0
2019-Oct-16 20:58N 16°28' W 088°24'0 0.0
2019-Oct-16 20:19N 16°28' W 088°24'0 0.0
2019-Oct-16 19:55N 16°28' W 088°24'0 0.0
2019-Oct-16 19:25N 16°28' W 088°24'0 0.0
2019-Oct-16 18:58N 16°28' W 088°24'0 0.0
2019-Oct-16 18:28N 16°28' W 088°24'0 0.0
2019-Oct-16 17:49N 16°28' W 088°24'0 0.0
2019-Oct-16 17:28N 16°28' W 088°24'0 0.0
2019-Oct-16 16:43N 16°28' W 088°24'0 0.0
2019-Oct-16 16:28N 16°28' W 088°24'0 0.0
2019-Oct-16 15:55N 16°28' W 088°24'0 0.0
2019-Oct-16 15:22N 16°28' W 088°24'0 0.0
2019-Oct-16 14:55N 16°28' W 088°24'0 0.0
2019-Oct-16 14:28N 16°28' W 088°24'0 0.0
2019-Oct-16 13:55N 16°28' W 088°24'0 0.0
2019-Oct-16 13:30N 16°28' W 088°24'2 4.1
2019-Oct-16 13:01N 16°26' W 088°24'611.4
2019-Oct-16 12:29N 16°20' W 088°25'510.6
2019-Oct-16 12:00N 16°15' W 088°26'611.0
2019-Oct-16 11:30N 16°10' W 088°26'10 9.6
2019-Oct-16 10:29N 16°01' W 088°22'1110.1
2019-Oct-16 09:26N 16°03' W 088°11'410.5
2019-Oct-16 09:00N 16°05' W 088°06'510.5
2019-Oct-16 08:30N 16°07' W 088°02'510.4
2019-Oct-16 08:00N 16°09' W 087°57'510.7
2019-Oct-16 07:30N 16°11' W 087°51'510.7
2019-Oct-16 07:00N 16°13' W 087°46'713.3
2019-Oct-16 06:30N 16°14' W 087°39'510.8
2019-Oct-16 06:00N 16°16' W 087°34'510.6
2019-Oct-16 05:30N 16°18' W 087°29'510.6
2019-Oct-16 05:00N 16°20' W 087°24'610.6
2019-Oct-16 04:29N 16°21' W 087°18'510.8
2019-Oct-16 04:00N 16°20' W 087°13'510.7
2019-Oct-16 03:30N 16°19' W 087°07'510.7
2019-Oct-16 03:00N 16°18' W 087°02'510.7
2019-Oct-16 02:30N 16°17' W 086°57'510.7
2019-Oct-16 02:00N 16°16' W 086°51'510.7
2019-Oct-16 01:30N 16°15' W 086°46'510.4
2019-Oct-16 01:00N 16°14' W 086°40'510.2
2019-Oct-16 00:30N 16°14' W 086°35'5 9.6
2019-Oct-16 00:00N 16°19' W 086°33'0 0.3
2019-Oct-15 23:25N 16°19' W 086°33'0277.2
2019-Oct-15 23:25N 16°19' W 086°33'0 0.0
2019-Oct-15 22:58N 16°19' W 086°33'0 0.0
2019-Oct-15 22:28N 16°19' W 086°33'0 0.0
2019-Oct-15 21:58N 16°19' W 086°33'0 0.0
2019-Oct-15 21:28N 16°19' W 086°33'0 0.0
2019-Oct-15 20:55N 16°19' W 086°33'0 0.0
2019-Oct-15 20:28N 16°19' W 086°33'0 0.0
2019-Oct-15 19:58N 16°19' W 086°33'0 0.0
2019-Oct-15 19:28N 16°19' W 086°33'0 0.0
2019-Oct-15 18:55N 16°19' W 086°33'0 0.0
2019-Oct-15 18:28N 16°19' W 086°33'0 0.0
2019-Oct-15 17:58N 16°19' W 086°33'0 0.0
2019-Oct-15 17:28N 16°19' W 086°33'0 0.0
2019-Oct-15 16:58N 16°19' W 086°33'0 0.0
2019-Oct-15 16:28N 16°19' W 086°33'0 0.0
2019-Oct-15 15:58N 16°19' W 086°33'0 0.0
2019-Oct-15 15:30N 16°19' W 086°33'1 2.4
2019-Oct-15 15:00N 16°18' W 086°33'510.4
2019-Oct-15 14:31N 16°18' W 086°39'1019.7
2019-Oct-15 14:00N 16°27' W 086°36'919.0
2019-Oct-15 13:31N 16°36' W 086°33'1019.9
2019-Oct-15 13:00N 16°46' W 086°30'1019.8
2019-Oct-15 12:30N 16°55' W 086°27'1019.4
2019-Oct-15 12:00N 17°05' W 086°25'62616.6
2019-Oct-13 22:16N 25°30' W 079°48'517.5
2019-Oct-13 22:00N 25°33' W 079°51'917.6
2019-Oct-13 21:30N 25°40' W 079°58'816.6
2019-Oct-13 21:00N 25°45' W 080°05'4 8.9
2019-Oct-13 20:30N 25°46' W 080°10'1 1.7
2019-Oct-13 19:59N 25°47' W 080°10'0 0.0
2019-Oct-13 19:29N 25°47' W 080°10'0 0.0
2019-Oct-13 18:59N 25°47' W 080°10'0 0.3
2019-Oct-13 18:42N 25°47' W 080°11'0 0.1
2019-Oct-13 18:30N 25°47' W 080°11'0 3.3
2019-Oct-13 18:29N 25°47' W 080°10'0 1.1
2019-Oct-13 18:23N 25°47' W 080°11'014.5
2019-Oct-13 18:23N 25°47' W 080°11'0 0.1
2019-Oct-13 18:00N 25°47' W 080°11'098.2
2019-Oct-13 18:00N 25°47' W 080°10'0 3.1
2019-Oct-13 17:59N 25°47' W 080°10'031.1
2019-Oct-13 17:59N 25°47' W 080°10'0 0.2
2019-Oct-13 17:30N 25°47' W 080°11'0 2.8
2019-Oct-13 17:29N 25°47' W 080°10'0 0.0
2019-Oct-13 16:59N 25°47' W 080°10'0 0.0
2019-Oct-13 16:29N 25°47' W 080°10'0 0.0
2019-Oct-13 15:59N 25°47' W 080°10'0 0.0
2019-Oct-13 15:29N 25°47' W 080°10'0 0.0
2019-Oct-13 14:59N 25°47' W 080°10'0 0.0
2019-Oct-13 14:29N 25°47' W 080°10'0 0.0
2019-Oct-13 13:59N 25°47' W 080°10'0 0.0
2019-Oct-13 13:29N 25°47' W 080°10'0 0.0
2019-Oct-13 12:59N 25°47' W 080°10'0 0.0
2019-Oct-13 12:29N 25°47' W 080°10'0 0.0
2019-Oct-13 11:56N 25°47' W 080°10'0 0.0
2019-Oct-13 11:29N 25°47' W 080°10'0 0.0
2019-Oct-13 10:59N 25°47' W 080°10'0 0.0
2019-Oct-13 10:30N 25°47' W 080°10'1 1.1
2019-Oct-13 10:00N 25°47' W 080°11'3 6.7
2019-Oct-13 09:30N 25°46' W 080°08'611.5
2019-Oct-13 09:00N 25°47' W 080°01'4 7.8
2019-Oct-13 08:30N 25°49' W 079°58'4 8.9
2019-Oct-13 08:00N 25°51' W 079°53'5 9.0
2019-Oct-13 07:30N 25°53' W 079°49'5 9.4
2019-Oct-13 07:00N 25°55' W 079°44'4 8.9
2019-Oct-13 06:30N 25°57' W 079°40'4 8.3
2019-Oct-13 06:00N 26°00' W 079°37'4 8.4
2019-Oct-13 05:30N 26°03' W 079°33'4 8.6
2019-Oct-13 05:00N 26°06' W 079°30'4 8.4
2019-Oct-13 04:30N 26°10' W 079°27'4 8.8
2019-Oct-13 04:00N 26°14' W 079°27'4 8.7
2019-Oct-13 03:30N 26°18' W 079°27'  
2019-Oct-10 21:30N 19°12' W 065°01'1020.3
2019-Oct-10 21:00N 19°04' W 064°54'1020.4
2019-Oct-10 20:30N 18°55' W 064°48'1220.3
2019-Oct-10 19:56N 18°46' W 064°41'920.2
2019-Oct-10 19:30N 18°39' W 064°36'31 1.6
2019-Oct-10 00:13N 18°09' W 064°43'210.4
2019-Oct-10 00:00N 18°09' W 064°45'5 9.6
2019-Oct-09 23:30N 18°10' W 064°50'4 8.5
2019-Oct-09 23:01N 18°12' W 064°53'5 9.2
2019-Oct-09 22:31N 18°17' W 064°55'3 6.6
2019-Oct-09 22:01N 18°20' W 064°55'0 0.4
2019-Oct-09 21:25N 18°20' W 064°55'0 0.0
2019-Oct-09 20:49N 18°20' W 064°55'0 0.0
2019-Oct-09 20:25N 18°20' W 064°55'0 0.0
2019-Oct-09 19:55N 18°20' W 064°55'0 0.0
2019-Oct-09 19:25N 18°20' W 064°55'0 0.0
2019-Oct-09 18:55N 18°20' W 064°55'0 0.0
2019-Oct-09 18:25N 18°20' W 064°55'0 0.0
2019-Oct-09 17:49N 18°20' W 064°55'0 0.0
2019-Oct-09 17:29N 18°20' W 064°55'0 0.0
2019-Oct-09 16:57N 18°20' W 064°55'0 0.0
2019-Oct-09 16:27N 18°20' W 064°55'0 0.0
2019-Oct-09 15:57N 18°20' W 064°55'0 0.0
2019-Oct-09 15:27N 18°20' W 064°55'0 0.0
2019-Oct-09 14:57N 18°20' W 064°55'0 0.0
2019-Oct-09 14:27N 18°20' W 064°55'0 0.0
2019-Oct-09 13:57N 18°20' W 064°55'0 0.0
2019-Oct-09 13:27N 18°20' W 064°55'0 0.0
2019-Oct-09 12:57N 18°20' W 064°55'0 0.0
2019-Oct-09 12:27N 18°20' W 064°55'0 0.0
2019-Oct-09 11:57N 18°20' W 064°55'0 0.1
2019-Oct-09 11:30N 18°20' W 064°55'2 3.8
2019-Oct-09 11:00N 18°18' W 064°56'510.7
2019-Oct-09 10:30N 18°16' W 065°01'612.0
2019-Oct-09 10:00N 18°19' W 065°06'713.1
2019-Oct-09 09:30N 18°25' W 065°11'713.6
2019-Oct-09 09:00N 18°30' W 065°14'713.6
2019-Oct-09 08:30N 18°35' W 065°19'612.4
2019-Oct-09 08:00N 18°39' W 065°24'612.4
2019-Oct-09 07:30N 18°40' W 065°31'612.5
2019-Oct-09 07:00N 18°40' W 065°37'713.1
2019-Oct-09 06:28N 18°42' W 065°45'1113.9
2019-Oct-09 05:41N 18°44' W 065°56'314.1
2019-Oct-09 05:26N 18°42' W 065°59'614.5
2019-Oct-09 05:00N 18°37' W 066°03'714.5
2019-Oct-09 04:30N 18°31' W 066°07'3 6.5
2019-Oct-09 03:59N 18°27' W 066°07'0 0.6
2019-Oct-09 03:29N 18°28' W 066°07'0 0.0
2019-Oct-09 02:59N 18°28' W 066°07'0 0.0
2019-Oct-09 02:29N 18°28' W 066°07'0 0.0
2019-Oct-09 01:59N 18°28' W 066°07'0 0.0
2019-Oct-09 01:29N 18°28' W 066°07'0 0.0
2019-Oct-09 00:59N 18°28' W 066°07'0 0.0
2019-Oct-09 00:29N 18°28' W 066°07'0 0.0
2019-Oct-08 23:59N 18°28' W 066°07'0 0.0
2019-Oct-08 23:29N 18°28' W 066°07'0 0.0
2019-Oct-08 22:59N 18°28' W 066°07'0 0.0
2019-Oct-08 22:29N 18°28' W 066°07'0 0.0
2019-Oct-08 21:59N 18°28' W 066°07'0 0.0
2019-Oct-08 21:29N 18°28' W 066°07'0 0.0
2019-Oct-08 20:59N 18°28' W 066°07'0 0.0
2019-Oct-08 20:29N 18°28' W 066°07'0 0.0
2019-Oct-08 19:59N 18°28' W 066°07'0 0.0
2019-Oct-08 19:29N 18°28' W 066°07'0 0.0
2019-Oct-08 19:00N 18°28' W 066°07'2 4.3
2019-Oct-08 18:30N 18°30' W 066°08'  
Track history (hours):
 
Tides and Currents Weather Stations Pressure Air Temp Water Temp Dewpoint Dewpoint Depression Visibility Wind Speed Wind Dir Waves Ship Positions

Norwegian Breakaway

Last reported at 2019-Oct-17 08:09 UTC. Time now 2019-Oct-17 16:49 UTC.
Position N 17°34' W 087°20'.

Length 325 m; draft 8.6 m.

Type: Passenger vessel. MMSI: 311050800.

Date/timePositionNaut miles runAvg speedWind from/ knotsBaromVisibWave heightAir tempDewpointWater temp
2019-Oct-17 08:09N 17°34' W 087°20'518.4
2019-Oct-17 07:53N 17°30' W 087°20'717.8
2019-Oct-17 07:29N 17°23' W 087°21'817.7
2019-Oct-17 07:01N 17°15' W 087°23'917.4
2019-Oct-17 06:30N 17°06' W 087°26'917.4
2019-Oct-17 06:00N 16°58' W 087°30'917.3
2019-Oct-17 05:30N 16°51' W 087°34'816.9
2019-Oct-17 05:00N 16°43' W 087°39'1016.6
2019-Oct-17 04:25N 16°35' W 087°44'1116.6
2019-Oct-17 03:45N 16°26' W 087°51'416.7
2019-Oct-17 03:30N 16°23' W 087°54'816.2
2019-Oct-17 03:00N 16°17' W 087°59'916.3
2019-Oct-17 02:29N 16°10' W 088°05'816.1
2019-Oct-17 02:01N 16°04' W 088°09'815.3
2019-Oct-17 01:30N 16°01' W 088°17'815.1
2019-Oct-17 01:00N 16°02' W 088°25'713.8
2019-Oct-17 00:30N 16°09' W 088°27'714.2
2019-Oct-17 00:00N 16°16' W 088°26'813.9
2019-Oct-16 23:27N 16°24' W 088°24'4 9.9
2019-Oct-16 23:00N 16°28' W 088°24'0 0.1
2019-Oct-16 22:19N 16°28' W 088°24'0 0.0
2019-Oct-16 21:46N 16°28' W 088°24'0 0.0
2019-Oct-16 21:28N 16°28' W 088°24'0 0.0
2019-Oct-16 20:58N 16°28' W 088°24'0 0.0
2019-Oct-16 20:19N 16°28' W 088°24'0 0.0
2019-Oct-16 19:55N 16°28' W 088°24'0 0.0
2019-Oct-16 19:25N 16°28' W 088°24'0 0.0
2019-Oct-16 18:58N 16°28' W 088°24'0 0.0
2019-Oct-16 18:28N 16°28' W 088°24'0 0.0
2019-Oct-16 17:49N 16°28' W 088°24'0 0.0
2019-Oct-16 17:28N 16°28' W 088°24'0 0.0
2019-Oct-16 16:43N 16°28' W 088°24'0 0.0
2019-Oct-16 16:28N 16°28' W 088°24'0 0.0
2019-Oct-16 15:55N 16°28' W 088°24'0 0.0
2019-Oct-16 15:22N 16°28' W 088°24'0 0.0
2019-Oct-16 14:55N 16°28' W 088°24'0 0.0
2019-Oct-16 14:28N 16°28' W 088°24'0 0.0
2019-Oct-16 13:55N 16°28' W 088°24'0 0.0
2019-Oct-16 13:30N 16°28' W 088°24'2 4.1
2019-Oct-16 13:01N 16°26' W 088°24'611.4
2019-Oct-16 12:29N 16°20' W 088°25'510.6
2019-Oct-16 12:00N 16°15' W 088°26'611.0
2019-Oct-16 11:30N 16°10' W 088°26'10 9.6
2019-Oct-16 10:29N 16°01' W 088°22'1110.1
2019-Oct-16 09:26N 16°03' W 088°11'410.5
2019-Oct-16 09:00N 16°05' W 088°06'510.5
2019-Oct-16 08:30N 16°07' W 088°02'510.4
2019-Oct-16 08:00N 16°09' W 087°57'510.7
2019-Oct-16 07:30N 16°11' W 087°51'510.7
2019-Oct-16 07:00N 16°13' W 087°46'713.3
2019-Oct-16 06:30N 16°14' W 087°39'510.8
2019-Oct-16 06:00N 16°16' W 087°34'510.6
2019-Oct-16 05:30N 16°18' W 087°29'510.6
2019-Oct-16 05:00N 16°20' W 087°24'610.6
2019-Oct-16 04:29N 16°21' W 087°18'510.8
2019-Oct-16 04:00N 16°20' W 087°13'510.7
2019-Oct-16 03:30N 16°19' W 087°07'510.7
2019-Oct-16 03:00N 16°18' W 087°02'510.7
2019-Oct-16 02:30N 16°17' W 086°57'510.7
2019-Oct-16 02:00N 16°16' W 086°51'510.7
2019-Oct-16 01:30N 16°15' W 086°46'510.4
2019-Oct-16 01:00N 16°14' W 086°40'510.2
2019-Oct-16 00:30N 16°14' W 086°35'5 9.6
2019-Oct-16 00:00N 16°19' W 086°33'0 0.3
2019-Oct-15 23:25N 16°19' W 086°33'0277.2
2019-Oct-15 23:25N 16°19' W 086°33'0 0.0
2019-Oct-15 22:58N 16°19' W 086°33'0 0.0
2019-Oct-15 22:28N 16°19' W 086°33'0 0.0
2019-Oct-15 21:58N 16°19' W 086°33'0 0.0
2019-Oct-15 21:28N 16°19' W 086°33'0 0.0
2019-Oct-15 20:55N 16°19' W 086°33'0 0.0
2019-Oct-15 20:28N 16°19' W 086°33'0 0.0
2019-Oct-15 19:58N 16°19' W 086°33'0 0.0
2019-Oct-15 19:28N 16°19' W 086°33'0 0.0
2019-Oct-15 18:55N 16°19' W 086°33'0 0.0
2019-Oct-15 18:28N 16°19' W 086°33'0 0.0
2019-Oct-15 17:58N 16°19' W 086°33'0 0.0
2019-Oct-15 17:28N 16°19' W 086°33'0 0.0
2019-Oct-15 16:58N 16°19' W 086°33'0 0.0
2019-Oct-15 16:28N 16°19' W 086°33'0 0.0
2019-Oct-15 15:58N 16°19' W 086°33'0 0.0
2019-Oct-15 15:30N 16°19' W 086°33'1 2.4
2019-Oct-15 15:00N 16°18' W 086°33'510.4
2019-Oct-15 14:31N 16°18' W 086°39'1019.7
2019-Oct-15 14:00N 16°27' W 086°36'919.0
2019-Oct-15 13:31N 16°36' W 086°33'1019.9
2019-Oct-15 13:00N 16°46' W 086°30'1019.8
2019-Oct-15 12:30N 16°55' W 086°27'1019.4
2019-Oct-15 12:00N 17°05' W 086°25'62616.6
2019-Oct-13 22:16N 25°30' W 079°48'517.5
2019-Oct-13 22:00N 25°33' W 079°51'917.6
2019-Oct-13 21:30N 25°40' W 079°58'816.6
2019-Oct-13 21:00N 25°45' W 080°05'4 8.9
2019-Oct-13 20:30N 25°46' W 080°10'1 1.7
2019-Oct-13 19:59N 25°47' W 080°10'0 0.0
2019-Oct-13 19:29N 25°47' W 080°10'0 0.0
2019-Oct-13 18:59N 25°47' W 080°10'0 0.3
2019-Oct-13 18:42N 25°47' W 080°11'0 0.1
2019-Oct-13 18:30N 25°47' W 080°11'0 3.3
2019-Oct-13 18:29N 25°47' W 080°10'0 1.1
2019-Oct-13 18:23N 25°47' W 080°11'014.5
2019-Oct-13 18:23N 25°47' W 080°11'0 0.1
2019-Oct-13 18:00N 25°47' W 080°11'098.2
2019-Oct-13 18:00N 25°47' W 080°10'0 3.1
2019-Oct-13 17:59N 25°47' W 080°10'031.1
2019-Oct-13 17:59N 25°47' W 080°10'0 0.2
2019-Oct-13 17:30N 25°47' W 080°11'0 2.8
2019-Oct-13 17:29N 25°47' W 080°10'0 0.0
2019-Oct-13 16:59N 25°47' W 080°10'0 0.0
2019-Oct-13 16:29N 25°47' W 080°10'0 0.0
2019-Oct-13 15:59N 25°47' W 080°10'0 0.0
2019-Oct-13 15:29N 25°47' W 080°10'0 0.0
2019-Oct-13 14:59N 25°47' W 080°10'0 0.0
2019-Oct-13 14:29N 25°47' W 080°10'0 0.0
2019-Oct-13 13:59N 25°47' W 080°10'0 0.0
2019-Oct-13 13:29N 25°47' W 080°10'0 0.0
2019-Oct-13 12:59N 25°47' W 080°10'0 0.0
2019-Oct-13 12:29N 25°47' W 080°10'0 0.0
2019-Oct-13 11:56N 25°47' W 080°10'0 0.0
2019-Oct-13 11:29N 25°47' W 080°10'0 0.0
2019-Oct-13 10:59N 25°47' W 080°10'0 0.0
2019-Oct-13 10:30N 25°47' W 080°10'1 1.1
2019-Oct-13 10:00N 25°47' W 080°11'3 6.7
2019-Oct-13 09:30N 25°46' W 080°08'611.5
2019-Oct-13 09:00N 25°47' W 080°01'4 7.8
2019-Oct-13 08:30N 25°49' W 079°58'4 8.9
2019-Oct-13 08:00N 25°51' W 079°53'5 9.0
2019-Oct-13 07:30N 25°53' W 079°49'5 9.4
2019-Oct-13 07:00N 25°55' W 079°44'4 8.9
2019-Oct-13 06:30N 25°57' W 079°40'4 8.3
2019-Oct-13 06:00N 26°00' W 079°37'4 8.4
2019-Oct-13 05:30N 26°03' W 079°33'4 8.6
2019-Oct-13 05:00N 26°06' W 079°30'4 8.4
2019-Oct-13 04:30N 26°10' W 079°27'4 8.8
2019-Oct-13 04:00N 26°14' W 079°27'4 8.7
2019-Oct-13 03:30N 26°18' W 079°27'  
2019-Oct-10 21:30N 19°12' W 065°01'1020.3
2019-Oct-10 21:00N 19°04' W 064°54'1020.4
2019-Oct-10 20:30N 18°55' W 064°48'1220.3
2019-Oct-10 19:56N 18°46' W 064°41'920.2
2019-Oct-10 19:30N 18°39' W 064°36'31 1.6
2019-Oct-10 00:13N 18°09' W 064°43'210.4
2019-Oct-10 00:00N 18°09' W 064°45'5 9.6
2019-Oct-09 23:30N 18°10' W 064°50'4 8.5
2019-Oct-09 23:01N 18°12' W 064°53'5 9.2
2019-Oct-09 22:31N 18°17' W 064°55'3 6.6
2019-Oct-09 22:01N 18°20' W 064°55'0 0.4
2019-Oct-09 21:25N 18°20' W 064°55'0 0.0
2019-Oct-09 20:49N 18°20' W 064°55'0 0.0
2019-Oct-09 20:25N 18°20' W 064°55'0 0.0
2019-Oct-09 19:55N 18°20' W 064°55'0 0.0
2019-Oct-09 19:25N 18°20' W 064°55'0 0.0
2019-Oct-09 18:55N 18°20' W 064°55'0 0.0
2019-Oct-09 18:25N 18°20' W 064°55'0 0.0
2019-Oct-09 17:49N 18°20' W 064°55'0 0.0
2019-Oct-09 17:29N 18°20' W 064°55'0 0.0
2019-Oct-09 16:57N 18°20' W 064°55'0 0.0
2019-Oct-09 16:27N 18°20' W 064°55'0 0.0
2019-Oct-09 15:57N 18°20' W 064°55'0 0.0
2019-Oct-09 15:27N 18°20' W 064°55'0 0.0
2019-Oct-09 14:57N 18°20' W 064°55'0 0.0
2019-Oct-09 14:27N 18°20' W 064°55'0 0.0
2019-Oct-09 13:57N 18°20' W 064°55'0 0.0
2019-Oct-09 13:27N 18°20' W 064°55'0 0.0
2019-Oct-09 12:57N 18°20' W 064°55'0 0.0
2019-Oct-09 12:27N 18°20' W 064°55'0 0.0
2019-Oct-09 11:57N 18°20' W 064°55'0 0.1
2019-Oct-09 11:30N 18°20' W 064°55'2 3.8
2019-Oct-09 11:00N 18°18' W 064°56'510.7
2019-Oct-09 10:30N 18°16' W 065°01'612.0
2019-Oct-09 10:00N 18°19' W 065°06'713.1
2019-Oct-09 09:30N 18°25' W 065°11'713.6
2019-Oct-09 09:00N 18°30' W 065°14'713.6
2019-Oct-09 08:30N 18°35' W 065°19'612.4
2019-Oct-09 08:00N 18°39' W 065°24'612.4
2019-Oct-09 07:30N 18°40' W 065°31'612.5
2019-Oct-09 07:00N 18°40' W 065°37'713.1
2019-Oct-09 06:28N 18°42' W 065°45'1113.9
2019-Oct-09 05:41N 18°44' W 065°56'314.1
2019-Oct-09 05:26N 18°42' W 065°59'614.5
2019-Oct-09 05:00N 18°37' W 066°03'714.5
2019-Oct-09 04:30N 18°31' W 066°07'3 6.5
2019-Oct-09 03:59N 18°27' W 066°07'0 0.6
2019-Oct-09 03:29N 18°28' W 066°07'0 0.0
2019-Oct-09 02:59N 18°28' W 066°07'0 0.0
2019-Oct-09 02:29N 18°28' W 066°07'0 0.0
2019-Oct-09 01:59N 18°28' W 066°07'0 0.0
2019-Oct-09 01:29N 18°28' W 066°07'0 0.0
2019-Oct-09 00:59N 18°28' W 066°07'0 0.0
2019-Oct-09 00:29N 18°28' W 066°07'0 0.0
2019-Oct-08 23:59N 18°28' W 066°07'0 0.0
2019-Oct-08 23:29N 18°28' W 066°07'0 0.0
2019-Oct-08 22:59N 18°28' W 066°07'0 0.0
2019-Oct-08 22:29N 18°28' W 066°07'0 0.0
2019-Oct-08 21:59N 18°28' W 066°07'0 0.0
2019-Oct-08 21:29N 18°28' W 066°07'0 0.0
2019-Oct-08 20:59N 18°28' W 066°07'0 0.0
2019-Oct-08 20:29N 18°28' W 066°07'0 0.0
2019-Oct-08 19:59N 18°28' W 066°07'0 0.0
2019-Oct-08 19:29N 18°28' W 066°07'0 0.0
2019-Oct-08 19:00N 18°28' W 066°07'2 4.3
2019-Oct-08 18:30N 18°30' W 066°08'  

Dump ship's entire track history